La Puebla, New Mexico
Current Conditions -  °F | °C
As of 9:55 PM on Monday 20 Oct 2014 (Local Time) from KLAM Reporting Station
Clear Clear  
Wind Chill: 53°   Ceiling: Unl
Heat Index: 53°   Visibility: 10mi
Dew Point: 41°   Wind: 3mph
Humidity: 64%   Direction: 210°SSW
Pressure: 30.27"   Gusts: NA
Location:  35.9775°N, 106.158°W
Report Text: KLAM 210355Z AUTO 21003KT 10SM CLR 12/05 A3027 RMK AO2 T01160050
Loading
Personal Weather Stations






























Interactive Weather Map
Tropical Storm Tracking
New forecast layout! Learn more

10-Day Weather Forecast

Advertisements
Track Severe Weather on mobile